createdAt,value
2023-01-13T00:04:15.691Z,99.90
2023-01-13T00:09:14.427Z,99.90
2023-01-13T00:14:13.404Z,99.90
2023-01-13T00:19:15.513Z,99.90
2023-01-13T00:24:14.514Z,99.90
2023-01-13T00:29:13.525Z,99.90
2023-01-13T00:34:12.461Z,99.90
2023-01-13T00:39:11.528Z,99.90
2023-01-13T00:44:10.475Z,99.90
2023-01-13T00:49:09.406Z,99.90
2023-01-13T00:54:08.581Z,99.90
2023-01-13T00:59:07.596Z,99.90
2023-01-13T01:04:06.404Z,99.90
2023-01-13T01:09:05.624Z,99.90
2023-01-13T01:14:04.635Z,99.90
2023-01-13T01:19:04.818Z,99.90
2023-01-13T01:24:04.490Z,99.90
2023-01-13T01:29:03.518Z,99.90
2023-01-13T01:34:02.344Z,99.90
2023-01-13T01:39:01.561Z,99.90
2023-01-13T01:44:02.527Z,99.90
2023-01-13T01:49:01.596Z,99.90
2023-01-13T01:54:00.409Z,99.90
2023-01-13T01:58:59.526Z,99.90
2023-01-13T02:03:58.425Z,99.70
2023-01-13T02:08:57.437Z,98.10
2023-01-13T02:13:56.651Z,96.70
2023-01-13T02:18:55.594Z,95.70
2023-01-13T02:24:12.901Z,95.60
2023-01-13T02:29:30.961Z,95.30
2023-01-13T02:34:30.586Z,94.60
2023-01-13T02:39:29.392Z,93.70
2023-01-13T02:44:28.432Z,93.60
2023-01-13T02:49:27.625Z,93.50
2023-01-13T02:54:26.835Z,93.40
2023-01-13T02:59:27.688Z,93.50
2023-01-13T03:04:26.260Z,93.50
2023-01-13T03:09:25.892Z,93.70
2023-01-13T03:14:24.519Z,93.90
2023-01-13T03:19:24.398Z,94.00
2023-01-13T03:24:23.309Z,94.00
2023-01-13T03:29:22.341Z,94.10
2023-01-13T03:34:21.374Z,94.20
2023-01-13T03:39:20.432Z,94.10
2023-01-13T03:44:22.257Z,94.30
2023-01-13T03:49:21.500Z,94.50
2023-01-13T03:54:20.482Z,94.70
2023-01-13T03:59:19.527Z,94.80
2023-01-13T04:04:18.291Z,95.00
2023-01-13T04:09:17.505Z,95.10
2023-01-13T04:14:16.513Z,95.10
2023-01-13T04:19:15.536Z,95.70
2023-01-13T04:24:14.293Z,95.80
2023-01-13T04:29:15.525Z,95.90
2023-01-13T04:34:14.307Z,95.90
2023-01-13T04:39:13.320Z,96.00
2023-01-13T04:44:12.323Z,96.00
2023-01-13T04:49:14.455Z,96.00
2023-01-13T04:54:13.356Z,96.00
2023-01-13T04:59:12.275Z,96.00
2023-01-13T05:04:11.535Z,95.90
2023-01-13T05:09:11.229Z,95.50
2023-01-13T05:14:28.416Z,95.30
2023-01-13T05:19:27.477Z,95.50
2023-01-13T05:24:44.557Z,95.40
2023-01-13T05:29:43.446Z,95.20
2023-01-13T05:34:42.378Z,95.20
2023-01-13T05:39:59.666Z,95.20
2023-01-13T05:44:58.513Z,95.20
2023-01-13T05:49:57.522Z,95.20
2023-01-13T05:54:56.389Z,94.80
2023-01-13T05:59:55.549Z,94.90
2023-01-13T06:04:54.365Z,95.00
2023-01-13T06:09:56.341Z,94.80
2023-01-13T06:14:55.346Z,95.10
2023-01-13T06:19:54.356Z,95.20
2023-01-13T06:24:53.412Z,95.20
2023-01-13T06:29:52.409Z,95.20
2023-01-13T06:34:54.378Z,95.00
2023-01-13T06:39:54.730Z,94.90
2023-01-13T06:44:53.520Z,95.00
2023-01-13T06:49:55.502Z,94.90
2023-01-13T06:54:54.588Z,94.90
2023-01-13T06:59:53.317Z,95.00
2023-01-13T07:04:52.373Z,95.10
2023-01-13T07:09:51.554Z,95.30
2023-01-13T07:15:08.770Z,95.30
2023-01-13T07:20:07.594Z,95.30
2023-01-13T07:25:06.393Z,95.20
2023-01-13T07:30:05.617Z,95.00
2023-01-13T07:35:07.381Z,94.90
2023-01-13T07:40:06.520Z,94.60
2023-01-13T07:45:05.800Z,94.50
2023-01-13T07:50:04.431Z,94.30
2023-01-13T07:55:03.448Z,94.30
2023-01-13T08:00:04.428Z,94.30
2023-01-13T08:05:03.451Z,94.40
2023-01-13T08:10:02.604Z,94.50
2023-01-13T08:15:01.441Z,94.60
2023-01-13T08:20:03.475Z,94.60
2023-01-13T08:25:02.580Z,94.50
2023-01-13T08:30:01.469Z,94.50
2023-01-13T08:35:00.569Z,94.40
2023-01-13T08:39:59.612Z,94.40
2023-01-13T08:44:58.473Z,94.10
2023-01-13T08:49:57.584Z,93.80
2023-01-13T08:54:56.524Z,93.80
2023-01-13T08:59:55.515Z,93.60
2023-01-13T09:04:54.932Z,93.50
2023-01-13T09:09:53.419Z,93.40
2023-01-13T09:14:52.454Z,93.40
2023-01-13T09:19:51.457Z,93.10
2023-01-13T09:24:50.380Z,93.00
2023-01-13T09:29:49.473Z,93.00
2023-01-13T09:35:00.289Z,92.80
2023-01-13T09:39:59.438Z,92.50
2023-01-13T09:44:58.493Z,92.60
2023-01-13T09:49:57.496Z,92.20
2023-01-13T09:54:56.604Z,92.30
2023-01-13T09:59:57.328Z,92.00
2023-01-13T10:04:56.521Z,91.80
2023-01-13T10:09:55.922Z,91.70
2023-01-13T10:14:54.621Z,91.60
2023-01-13T10:19:53.437Z,91.50
2023-01-13T10:24:52.549Z,91.30
2023-01-13T10:29:51.555Z,90.80
2023-01-13T10:34:50.719Z,90.70
2023-01-13T10:39:49.557Z,90.70
2023-01-13T10:44:48.613Z,90.70
2023-01-13T10:48:40.366Z,90.40
2023-01-13T10:53:39.445Z,90.40
2023-01-13T10:58:38.394Z,90.00
2023-01-13T11:03:39.534Z,90.30
2023-01-13T11:08:38.473Z,90.10
2023-01-13T11:13:39.384Z,90.20
2023-01-13T11:18:39.809Z,89.60
2023-01-13T11:23:38.286Z,88.50
2023-01-13T11:28:37.386Z,88.50
2023-01-13T11:33:36.773Z,88.60
2023-01-13T11:38:35.313Z,88.50
2023-01-13T11:43:34.427Z,88.80
2023-01-13T11:48:33.347Z,89.00
2023-01-13T11:53:32.350Z,88.30
2023-01-13T11:58:33.812Z,88.20
2023-01-13T12:03:32.665Z,88.90
2023-01-13T12:08:31.308Z,90.00
2023-01-13T12:13:30.396Z,89.50
2023-01-13T12:18:29.348Z,89.30
2023-01-13T12:23:28.363Z,88.70
2023-01-13T12:28:27.386Z,88.20
2023-01-13T12:33:26.389Z,88.30
2023-01-13T12:38:25.392Z,88.40
2023-01-13T12:43:42.901Z,89.40
2023-01-13T12:48:41.326Z,90.40
2023-01-13T12:53:40.332Z,93.60
2023-01-13T12:58:39.356Z,94.90
2023-01-13T13:03:38.489Z,96.80
2023-01-13T13:08:37.293Z,99.90
2023-01-13T13:13:36.394Z,99.90
2023-01-13T13:18:35.405Z,99.90
2023-01-13T13:23:34.972Z,99.90
2023-01-13T13:28:37.716Z,99.90
2023-01-13T13:33:38.410Z,99.90
2023-01-13T13:38:55.680Z,99.90
2023-01-13T13:44:12.497Z,99.90
2023-01-13T13:49:11.925Z,99.90
2023-01-13T13:54:10.410Z,99.90
2023-01-13T13:59:09.613Z,99.90
2023-01-13T14:04:08.387Z,99.90
2023-01-13T14:09:08.644Z,99.90
2023-01-13T14:14:07.508Z,99.90
2023-01-13T14:19:06.623Z,99.90
2023-01-13T14:24:07.304Z,99.90
2023-01-13T14:29:06.502Z,99.90
2023-01-13T14:34:32.126Z,99.90
2023-01-13T14:39:09.927Z,99.90
2023-01-13T14:44:08.703Z,99.90
2023-01-13T14:49:07.852Z,99.90
2023-01-13T14:54:06.305Z,99.90
2023-01-13T14:59:05.422Z,99.90
2023-01-13T15:04:04.296Z,99.90
2023-01-13T15:09:03.336Z,99.90
2023-01-13T15:14:02.369Z,99.90
2023-01-13T15:19:01.511Z,99.90
2023-01-13T15:24:00.379Z,99.90
2023-01-13T15:29:00.224Z,99.90
2023-01-13T15:34:00.458Z,99.90
2023-01-13T15:38:59.552Z,99.90
2023-01-13T15:44:16.631Z,99.90
2023-01-13T15:49:15.424Z,99.90
2023-01-13T15:54:15.451Z,99.90
2023-01-13T15:59:14.452Z,99.90
2023-01-13T16:04:13.583Z,99.90
2023-01-13T16:09:12.393Z,99.90
2023-01-13T16:14:11.514Z,99.90
2023-01-13T16:19:10.485Z,99.90
2023-01-13T16:24:09.601Z,99.90
2023-01-13T16:29:09.234Z,99.90
2023-01-13T16:34:08.642Z,99.90
2023-01-13T16:39:07.370Z,99.90
2023-01-13T16:44:06.443Z,99.90
2023-01-13T16:49:05.461Z,99.90
2023-01-13T16:54:04.461Z,99.90
2023-01-13T16:59:03.801Z,99.90
2023-01-13T17:04:02.512Z,99.90
2023-01-13T17:09:01.720Z,99.90
2023-01-13T17:14:00.756Z,99.90
2023-01-13T17:19:01.471Z,99.90
2023-01-13T17:24:00.565Z,99.90
2023-01-13T17:28:59.791Z,99.90
2023-01-13T17:33:58.470Z,99.90
2023-01-13T17:38:57.639Z,99.90
2023-01-13T17:43:56.657Z,99.90
2023-01-13T17:48:55.657Z,99.90
2023-01-13T17:53:54.780Z,99.90
2023-01-13T17:58:53.589Z,99.90
2023-01-13T18:03:52.486Z,99.90
2023-01-13T18:08:51.670Z,99.90
2023-01-13T18:13:51.206Z,99.90
2023-01-13T18:18:50.705Z,99.90
2023-01-13T18:24:07.754Z,99.90
2023-01-13T18:29:06.670Z,99.90
2023-01-13T18:34:05.609Z,99.90
2023-01-13T18:39:04.829Z,99.90
2023-01-13T18:44:03.524Z,99.80
2023-01-13T18:49:02.469Z,99.40
2023-01-13T18:54:01.814Z,98.90
2023-01-13T18:59:01.944Z,99.10
2023-01-13T19:04:02.383Z,98.70
2023-01-13T19:09:04.467Z,98.30
2023-01-13T19:14:03.596Z,98.00
2023-01-13T19:19:02.495Z,97.50
2023-01-13T19:24:01.643Z,97.40
2023-01-13T19:29:00.546Z,97.10
2023-01-13T19:33:59.649Z,96.70
2023-01-13T19:38:58.989Z,96.70
2023-01-13T19:44:15.689Z,96.80
2023-01-13T19:49:14.533Z,96.80
2023-01-13T19:54:13.620Z,96.80
2023-01-13T19:59:13.058Z,96.70
2023-01-13T20:04:14.068Z,96.80
2023-01-13T20:09:12.580Z,96.60
2023-01-13T20:14:11.604Z,96.60
2023-01-13T20:19:10.617Z,96.40
2023-01-13T20:24:10.920Z,96.60
2023-01-13T20:29:09.601Z,96.60
2023-01-13T20:34:08.577Z,96.50
2023-01-13T20:39:08.601Z,96.60
2023-01-13T20:44:09.529Z,96.50
2023-01-13T20:49:09.262Z,96.40
2023-01-13T20:54:08.888Z,96.60
2023-01-13T20:59:07.620Z,96.50
2023-01-13T21:04:06.884Z,96.70
2023-01-13T21:09:05.668Z,96.70
2023-01-13T21:14:25.838Z,96.80
2023-01-13T21:19:24.786Z,96.90
2023-01-13T21:24:23.675Z,97.40
2023-01-13T21:29:23.066Z,97.90
2023-01-13T21:34:21.571Z,98.10
2023-01-13T21:39:20.593Z,98.30
2023-01-13T21:44:37.668Z,98.40
2023-01-13T21:49:38.893Z,98.20
2023-01-13T21:54:39.560Z,98.30
2023-01-13T21:59:38.671Z,98.40
2023-01-13T22:04:37.680Z,98.40
2023-01-13T22:09:36.692Z,98.30
2023-01-13T22:14:36.000Z,98.30
2023-01-13T22:19:36.959Z,98.20
2023-01-13T22:24:38.027Z,98.10
2023-01-13T22:29:37.756Z,98.10
2023-01-13T22:34:36.683Z,98.10
2023-01-13T22:39:36.079Z,98.10
2023-01-13T22:44:34.801Z,98.10
2023-01-13T22:49:33.715Z,98.10
2023-01-13T22:54:32.707Z,98.10
2023-01-13T22:59:31.932Z,98.10
2023-01-13T23:04:30.783Z,98.10
2023-01-13T23:09:30.061Z,98.10
2023-01-13T23:14:28.851Z,98.10
2023-01-13T23:19:27.871Z,98.00
2023-01-13T23:24:28.626Z,98.00
2023-01-13T23:29:27.756Z,97.90
2023-01-13T23:34:26.755Z,97.90
2023-01-13T23:39:25.651Z,97.90
2023-01-13T23:44:24.792Z,97.80
2023-01-13T23:49:23.684Z,97.80
2023-01-13T23:54:22.892Z,97.80
2023-01-13T23:59:21.729Z,97.70
